Airfield :
LOGIN :

Register | Disclaimer

   EN    FR    IT 

 










Legend :    VFR   Marginal VFR   IFR   Intensive IFR   Very Intensive IFR
Visi :
Ceiling :
>= 8 km
>= 3000ft
5 to 8 km
1000 to 3000 ft
1500m to 5 km
500 to 1000 ft
800 to 1500m
200 to 500 ft
< 800m
< 200 ft
Symbols :   Thunderstorms  Fog  Heavy snow  Heavy precipitations  Wind > 20 kt
SIGMETs :     Misc.  Thunderstorms  Icing  Turbulence  Mountain Waves  Volcanic Ashes







- Airport Elevation : 1260 ft
- IATA code : LDE
- Download approach charts


LFBT - Tarbes / Ossun

CURRENT METAR :
  • 222200Z AUTO 28013KT CAVOK 18/13 Q1019 NOSIG

EXPIRED METARs :
  • 222130Z AUTO 24004KT 200V270 CAVOK 17/13 Q1019 NOSIG
  • 222100Z AUTO 12003KT 070V170 CAVOK 17/12 Q1018 NOSIG
  • 222030Z AUTO VRB02KT 9999 FEW100 BKN120 BKN140 18/12 Q1018 NOSIG
  • 222000Z AUTO 24006KT 9999 BKN100 BKN130 OVC230 17/12 Q1018 NOSIG
  • 221930Z AUTO 22005KT CAVOK 17/12 Q1017 NOSIG

TAF TAF LFBT
Valid from the 22 at 18:00 until the 23 at 18:00 UTC


221700Z 2218/2318 VRB03KT CAVOK
TEMPO 2218/2224 28006KT
PROB40
TEMPO 2300/2303 4000 -SHRA BKN050
PROB40
TEMPO 2309/2318 BKN020
No reported NOTAMs for that airfield.



MET'MAP, your aeronautical weather chart ! - Copyright ORBIFLY December 2007 - Disclaimer

ORBIFLY MET'MAP TEAM :

Programming & Development : Alexandra Zaïnal
Concept & Development : Baudouin d'Aumeries
Co-Development & Prog : Marc-Olivier Méhu
Technical & hardware support : Manuel Goepfert

Contact : metmap@orbifly.com




SOURCES & CREDITS :

   NOAA